sensor_id;sensor_type;location;lat;lon;timestamp;P1;durP1;ratioP1;P2;durP2;ratioP2
59520;SDS011;54898;40.918;14.476;2022-07-12T00:01:22;13.23;;;6.45;;
59520;SDS011;54898;40.918;14.476;2022-07-12T00:03:48;13.70;;;6.60;;
59520;SDS011;54898;40.918;14.476;2022-07-12T00:06:15;14.18;;;7.97;;
59520;SDS011;54898;40.918;14.476;2022-07-12T00:08:42;10.82;;;6.30;;
59520;SDS011;54898;40.918;14.476;2022-07-12T00:11:09;8.95;;;5.60;;
59520;SDS011;54898;40.918;14.476;2022-07-12T00:13:37;8.75;;;5.28;;
59520;SDS011;54898;40.918;14.476;2022-07-12T00:16:04;11.63;;;5.50;;
59520;SDS011;54898;40.918;14.476;2022-07-12T00:18:31;10.02;;;5.78;;
59520;SDS011;54898;40.918;14.476;2022-07-12T00:20:58;10.70;;;5.80;;
59520;SDS011;54898;40.918;14.476;2022-07-12T00:23:24;11.30;;;5.22;;
59520;SDS011;54898;40.918;14.476;2022-07-12T00:25:51;11.52;;;5.88;;
59520;SDS011;54898;40.918;14.476;2022-07-12T00:28:18;11.65;;;5.68;;
59520;SDS011;54898;40.918;14.476;2022-07-12T00:30:46;10.20;;;5.88;;
59520;SDS011;54898;40.918;14.476;2022-07-12T00:33:13;8.18;;;5.10;;
59520;SDS011;54898;40.918;14.476;2022-07-12T00:35:39;7.93;;;4.60;;
59520;SDS011;54898;40.918;14.476;2022-07-12T00:38:06;8.80;;;4.90;;
59520;SDS011;54898;40.918;14.476;2022-07-12T00:40:32;6.15;;;4.40;;
59520;SDS011;54898;40.918;14.476;2022-07-12T00:42:59;7.60;;;4.80;;
59520;SDS011;54898;40.918;14.476;2022-07-12T00:45:26;6.07;;;4.50;;
59520;SDS011;54898;40.918;14.476;2022-07-12T00:47:53;8.07;;;4.82;;
59520;SDS011;54898;40.918;14.476;2022-07-12T00:50:21;11.45;;;5.68;;
59520;SDS011;54898;40.918;14.476;2022-07-12T00:52:49;11.98;;;5.80;;
59520;SDS011;54898;40.918;14.476;2022-07-12T00:55:17;10.38;;;5.22;;
59520;SDS011;54898;40.918;14.476;2022-07-12T00:57:44;11.82;;;5.18;;
59520;SDS011;54898;40.918;14.476;2022-07-12T01:00:12;11.88;;;5.43;;
59520;SDS011;54898;40.918;14.476;2022-07-12T01:02:41;11.77;;;4.80;;
59520;SDS011;54898;40.918;14.476;2022-07-12T01:05:10;7.55;;;4.82;;
59520;SDS011;54898;40.918;14.476;2022-07-12T01:07:37;9.63;;;5.03;;
59520;SDS011;54898;40.918;14.476;2022-07-12T01:10:05;9.77;;;5.47;;
59520;SDS011;54898;40.918;14.476;2022-07-12T01:12:32;10.73;;;5.38;;
59520;SDS011;54898;40.918;14.476;2022-07-12T01:14:59;8.80;;;4.68;;
59520;SDS011;54898;40.918;14.476;2022-07-12T01:17:27;13.25;;;5.03;;
59520;SDS011;54898;40.918;14.476;2022-07-12T01:19:54;7.25;;;4.85;;
59520;SDS011;54898;40.918;14.476;2022-07-12T01:22:25;8.25;;;4.40;;
59520;SDS011;54898;40.918;14.476;2022-07-12T01:24:55;11.52;;;5.28;;
59520;SDS011;54898;40.918;14.476;2022-07-12T01:27:22;7.93;;;5.07;;
59520;SDS011;54898;40.918;14.476;2022-07-12T01:29:48;8.43;;;5.28;;
59520;SDS011;54898;40.918;14.476;2022-07-12T01:32:15;9.32;;;5.00;;
59520;SDS011;54898;40.918;14.476;2022-07-12T01:34:52;6.43;;;3.60;;
59520;SDS011;54898;40.918;14.476;2022-07-12T01:37:19;7.47;;;3.63;;
59520;SDS011;54898;40.918;14.476;2022-07-12T01:39:47;8.90;;;4.53;;
59520;SDS011;54898;40.918;14.476;2022-07-12T01:42:17;7.53;;;4.05;;
59520;SDS011;54898;40.918;14.476;2022-07-12T01:44:43;7.80;;;3.65;;
59520;SDS011;54898;40.918;14.476;2022-07-12T01:47:10;5.45;;;3.33;;
59520;SDS011;54898;40.918;14.476;2022-07-12T01:49:37;6.18;;;3.42;;
59520;SDS011;54898;40.918;14.476;2022-07-12T01:52:04;6.20;;;3.30;;
59520;SDS011;54898;40.918;14.476;2022-07-12T01:54:31;5.70;;;3.17;;
59520;SDS011;54898;40.918;14.476;2022-07-12T01:56:59;6.05;;;3.63;;
59520;SDS011;54898;40.918;14.476;2022-07-12T01:59:28;5.43;;;3.60;;
59520;SDS011;54898;40.918;14.476;2022-07-12T02:01:55;5.18;;;3.58;;
59520;SDS011;54898;40.918;14.476;2022-07-12T02:04:22;5.78;;;3.92;;
59520;SDS011;54898;40.918;14.476;2022-07-12T02:06:50;6.85;;;3.65;;
59520;SDS011;54898;40.918;14.476;2022-07-12T02:09:17;4.50;;;3.38;;
59520;SDS011;54898;40.918;14.476;2022-07-12T02:11:44;3.72;;;3.35;;
59520;SDS011;54898;40.918;14.476;2022-07-12T02:14:11;6.63;;;3.83;;
59520;SDS011;54898;40.918;14.476;2022-07-12T02:19:09;6.38;;;3.72;;
59520;SDS011;54898;40.918;14.476;2022-07-12T02:21:36;7.35;;;3.85;;
59520;SDS011;54898;40.918;14.476;2022-07-12T02:24:03;102.95;;;15.15;;
59520;SDS011;54898;40.918;14.476;2022-07-12T02:26:32;13.77;;;4.72;;
59520;SDS011;54898;40.918;14.476;2022-07-12T02:28:58;8.18;;;3.70;;
59520;SDS011;54898;40.918;14.476;2022-07-12T02:31:25;6.65;;;3.85;;
59520;SDS011;54898;40.918;14.476;2022-07-12T02:33:54;10.38;;;3.17;;
59520;SDS011;54898;40.918;14.476;2022-07-12T02:36:20;4.38;;;2.75;;
59520;SDS011;54898;40.918;14.476;2022-07-12T02:38:47;3.90;;;2.80;;
59520;SDS011;54898;40.918;14.476;2022-07-12T02:41:14;4.78;;;2.85;;
59520;SDS011;54898;40.918;14.476;2022-07-12T02:43:40;5.28;;;2.60;;
59520;SDS011;54898;40.918;14.476;2022-07-12T02:46:08;6.40;;;3.22;;
59520;SDS011;54898;40.918;14.476;2022-07-12T02:48:37;13.98;;;3.83;;
59520;SDS011;54898;40.918;14.476;2022-07-12T02:51:06;3.95;;;3.10;;
59520;SDS011;54898;40.918;14.476;2022-07-12T02:53:33;5.45;;;2.80;;
59520;SDS011;54898;40.918;14.476;2022-07-12T02:56:00;3.47;;;3.13;;
59520;SDS011;54898;40.918;14.476;2022-07-12T02:58:27;4.30;;;3.45;;
59520;SDS011;54898;40.918;14.476;2022-07-12T03:00:54;5.35;;;3.75;;
59520;SDS011;54898;40.918;14.476;2022-07-12T03:03:21;8.30;;;3.70;;
59520;SDS011;54898;40.918;14.476;2022-07-12T03:05:48;5.13;;;3.50;;
59520;SDS011;54898;40.918;14.476;2022-07-12T03:08:17;3.80;;;3.05;;
59520;SDS011;54898;40.918;14.476;2022-07-12T03:10:44;7.40;;;3.65;;
59520;SDS011;54898;40.918;14.476;2022-07-12T03:13:11;6.30;;;3.50;;
59520;SDS011;54898;40.918;14.476;2022-07-12T03:15:38;4.60;;;3.10;;
59520;SDS011;54898;40.918;14.476;2022-07-12T03:18:04;8.13;;;3.38;;
59520;SDS011;54898;40.918;14.476;2022-07-12T03:20:31;4.20;;;2.90;;
59520;SDS011;54898;40.918;14.476;2022-07-12T03:22:59;4.97;;;3.10;;
59520;SDS011;54898;40.918;14.476;2022-07-12T03:25:27;4.35;;;2.95;;
59520;SDS011;54898;40.918;14.476;2022-07-12T03:27:54;3.65;;;2.80;;
59520;SDS011;54898;40.918;14.476;2022-07-12T03:30:21;6.45;;;2.40;;
59520;SDS011;54898;40.918;14.476;2022-07-12T03:32:47;5.45;;;2.90;;
59520;SDS011;54898;40.918;14.476;2022-07-12T03:35:15;6.15;;;3.05;;
59520;SDS011;54898;40.918;14.476;2022-07-12T03:37:42;2.97;;;2.72;;
59520;SDS011;54898;40.918;14.476;2022-07-12T03:40:10;5.15;;;2.63;;
59520;SDS011;54898;40.918;14.476;2022-07-12T03:42:39;7.55;;;3.53;;
59520;SDS011;54898;40.918;14.476;2022-07-12T03:45:07;9.85;;;3.30;;
59520;SDS011;54898;40.918;14.476;2022-07-12T03:47:34;5.70;;;2.92;;
59520;SDS011;54898;40.918;14.476;2022-07-12T03:50:02;5.03;;;3.22;;
59520;SDS011;54898;40.918;14.476;2022-07-12T03:52:30;7.40;;;3.55;;
59520;SDS011;54898;40.918;14.476;2022-07-12T03:54:57;7.15;;;3.20;;
59520;SDS011;54898;40.918;14.476;2022-07-12T03:57:24;7.72;;;3.30;;
59520;SDS011;54898;40.918;14.476;2022-07-12T03:59:54;5.40;;;3.30;;
59520;SDS011;54898;40.918;14.476;2022-07-12T04:02:21;6.45;;;3.47;;
59520;SDS011;54898;40.918;14.476;2022-07-12T04:04:48;9.02;;;3.35;;
59520;SDS011;54898;40.918;14.476;2022-07-12T04:07:15;7.43;;;3.20;;
59520;SDS011;54898;40.918;14.476;2022-07-12T04:09:42;7.72;;;3.08;;
59520;SDS011;54898;40.918;14.476;2022-07-12T04:12:09;5.65;;;2.97;;
59520;SDS011;54898;40.918;14.476;2022-07-12T04:14:35;15.30;;;3.10;;
59520;SDS011;54898;40.918;14.476;2022-07-12T04:17:04;13.55;;;3.92;;
59520;SDS011;54898;40.918;14.476;2022-07-12T04:19:31;8.05;;;3.50;;
59520;SDS011;54898;40.918;14.476;2022-07-12T04:21:58;6.03;;;3.20;;
59520;SDS011;54898;40.918;14.476;2022-07-12T04:24:25;7.28;;;3.30;;
59520;SDS011;54898;40.918;14.476;2022-07-12T04:26:52;7.80;;;3.60;;
59520;SDS011;54898;40.918;14.476;2022-07-12T04:29:19;5.90;;;3.25;;
59520;SDS011;54898;40.918;14.476;2022-07-12T04:31:46;6.18;;;2.92;;
59520;SDS011;54898;40.918;14.476;2022-07-12T04:34:14;5.15;;;2.80;;
59520;SDS011;54898;40.918;14.476;2022-07-12T04:36:43;16.30;;;5.43;;
59520;SDS011;54898;40.918;14.476;2022-07-12T04:39:10;13.73;;;3.60;;
59520;SDS011;54898;40.918;14.476;2022-07-12T04:41:37;8.00;;;3.17;;
59520;SDS011;54898;40.918;14.476;2022-07-12T04:44:03;7.13;;;2.88;;
59520;SDS011;54898;40.918;14.476;2022-07-12T04:46:30;6.68;;;3.10;;
59520;SDS011;54898;40.918;14.476;2022-07-12T04:48:57;6.28;;;3.10;;
59520;SDS011;54898;40.918;14.476;2022-07-12T04:51:25;10.10;;;3.25;;
59520;SDS011;54898;40.918;14.476;2022-07-12T04:53:53;6.50;;;3.17;;
59520;SDS011;54898;40.918;14.476;2022-07-12T04:56:19;8.40;;;3.30;;
59520;SDS011;54898;40.918;14.476;2022-07-12T04:58:46;12.63;;;3.13;;
59520;SDS011;54898;40.918;14.476;2022-07-12T05:01:13;10.07;;;3.80;;
59520;SDS011;54898;40.918;14.476;2022-07-12T05:03:41;12.48;;;3.85;;
59520;SDS011;54898;40.918;14.476;2022-07-12T05:06:07;13.23;;;4.00;;
59520;SDS011;54898;40.918;14.476;2022-07-12T05:08:36;15.98;;;4.15;;
59520;SDS011;54898;40.918;14.476;2022-07-12T05:11:03;15.75;;;3.58;;
59520;SDS011;54898;40.918;14.476;2022-07-12T05:13:30;15.77;;;3.90;;
59520;SDS011;54898;40.918;14.476;2022-07-12T05:15:56;14.95;;;3.90;;
59520;SDS011;54898;40.918;14.476;2022-07-12T05:18:23;10.07;;;4.20;;
59520;SDS011;54898;40.918;14.476;2022-07-12T05:20:50;9.50;;;4.38;;
59520;SDS011;54898;40.918;14.476;2022-07-12T05:23:16;8.80;;;4.50;;
59520;SDS011;54898;40.918;14.476;2022-07-12T05:25:45;10.32;;;4.78;;
59520;SDS011;54898;40.918;14.476;2022-07-12T05:28:12;15.63;;;5.13;;
59520;SDS011;54898;40.918;14.476;2022-07-12T05:30:40;10.07;;;4.57;;
59520;SDS011;54898;40.918;14.476;2022-07-12T05:33:06;10.90;;;4.80;;
59520;SDS011;54898;40.918;14.476;2022-07-12T05:35:33;10.70;;;5.03;;
59520;SDS011;54898;40.918;14.476;2022-07-12T05:38:00;18.63;;;5.68;;
59520;SDS011;54898;40.918;14.476;2022-07-12T05:40:27;17.80;;;5.75;;
59520;SDS011;54898;40.918;14.476;2022-07-12T05:42:55;18.25;;;6.03;;
59520;SDS011;54898;40.918;14.476;2022-07-12T05:45:22;15.45;;;5.95;;
59520;SDS011;54898;40.918;14.476;2022-07-12T05:47:49;16.52;;;5.57;;
59520;SDS011;54898;40.918;14.476;2022-07-12T05:50:15;11.57;;;5.90;;
59520;SDS011;54898;40.918;14.476;2022-07-12T05:52:42;16.92;;;6.45;;
59520;SDS011;54898;40.918;14.476;2022-07-12T05:55:27;14.82;;;6.20;;
59520;SDS011;54898;40.918;14.476;2022-07-12T05:57:56;12.63;;;5.72;;
59520;SDS011;54898;40.918;14.476;2022-07-12T06:00:22;13.82;;;5.60;;
59520;SDS011;54898;40.918;14.476;2022-07-12T06:02:49;16.85;;;5.97;;
59520;SDS011;54898;40.918;14.476;2022-07-12T06:05:16;13.90;;;5.50;;
59520;SDS011;54898;40.918;14.476;2022-07-12T06:07:42;17.77;;;6.05;;
59520;SDS011;54898;40.918;14.476;2022-07-12T06:10:09;17.35;;;5.50;;
59520;SDS011;54898;40.918;14.476;2022-07-12T06:12:36;13.90;;;5.80;;
59520;SDS011;54898;40.918;14.476;2022-07-12T06:15:05;13.43;;;5.07;;
59520;SDS011;54898;40.918;14.476;2022-07-12T06:17:32;19.25;;;6.63;;
59520;SDS011;54898;40.918;14.476;2022-07-12T06:19:59;17.27;;;6.32;;
59520;SDS011;54898;40.918;14.476;2022-07-12T06:22:26;13.93;;;5.75;;
59520;SDS011;54898;40.918;14.476;2022-07-12T06:24:52;17.67;;;7.60;;
59520;SDS011;54898;40.918;14.476;2022-07-12T06:27:19;21.83;;;7.00;;
59520;SDS011;54898;40.918;14.476;2022-07-12T06:29:46;23.48;;;7.80;;
59520;SDS011;54898;40.918;14.476;2022-07-12T06:32:15;23.13;;;9.23;;
59520;SDS011;54898;40.918;14.476;2022-07-12T06:34:42;22.67;;;10.52;;
59520;SDS011;54898;40.918;14.476;2022-07-12T06:37:09;24.85;;;8.98;;
59520;SDS011;54898;40.918;14.476;2022-07-12T06:39:36;18.73;;;7.45;;
59520;SDS011;54898;40.918;14.476;2022-07-12T06:42:03;8.85;;;6.00;;
59520;SDS011;54898;40.918;14.476;2022-07-12T06:44:30;13.68;;;6.68;;
59520;SDS011;54898;40.918;14.476;2022-07-12T06:46:57;10.68;;;5.53;;
59520;SDS011;54898;40.918;14.476;2022-07-12T06:49:25;12.75;;;5.30;;
59520;SDS011;54898;40.918;14.476;2022-07-12T06:51:52;18.43;;;8.37;;
59520;SDS011;54898;40.918;14.476;2022-07-12T06:54:18;16.38;;;7.97;;
59520;SDS011;54898;40.918;14.476;2022-07-12T06:56:45;16.05;;;6.50;;
59520;SDS011;54898;40.918;14.476;2022-07-12T06:59:12;13.35;;;6.25;;
59520;SDS011;54898;40.918;14.476;2022-07-12T07:01:39;13.40;;;6.57;;
59520;SDS011;54898;40.918;14.476;2022-07-12T07:04:06;13.43;;;6.53;;
59520;SDS011;54898;40.918;14.476;2022-07-12T07:06:34;14.98;;;6.72;;
59520;SDS011;54898;40.918;14.476;2022-07-12T07:09:01;22.07;;;6.93;;
59520;SDS011;54898;40.918;14.476;2022-07-12T07:11:33;13.68;;;6.10;;
59520;SDS011;54898;40.918;14.476;2022-07-12T07:14:01;23.92;;;6.68;;
59520;SDS011;54898;40.918;14.476;2022-07-12T07:16:27;16.23;;;5.28;;
59520;SDS011;54898;40.918;14.476;2022-07-12T07:18:54;16.42;;;6.50;;
59520;SDS011;54898;40.918;14.476;2022-07-12T07:21:21;17.75;;;5.60;;
59520;SDS011;54898;40.918;14.476;2022-07-12T07:23:50;16.75;;;5.45;;
59520;SDS011;54898;40.918;14.476;2022-07-12T07:26:16;19.80;;;6.80;;
59520;SDS011;54898;40.918;14.476;2022-07-12T07:28:43;17.85;;;6.57;;
59520;SDS011;54898;40.918;14.476;2022-07-12T07:31:28;17.45;;;6.13;;
59520;SDS011;54898;40.918;14.476;2022-07-12T07:33:55;23.42;;;6.50;;
59520;SDS011;54898;40.918;14.476;2022-07-12T07:36:22;20.30;;;6.85;;
59520;SDS011;54898;40.918;14.476;2022-07-12T07:38:50;14.70;;;6.90;;
59520;SDS011;54898;40.918;14.476;2022-07-12T07:41:16;17.92;;;7.28;;
59520;SDS011;54898;40.918;14.476;2022-07-12T07:43:43;21.75;;;7.53;;
59520;SDS011;54898;40.918;14.476;2022-07-12T07:46:10;14.50;;;7.13;;
59520;SDS011;54898;40.918;14.476;2022-07-12T07:48:37;16.52;;;7.45;;
59520;SDS011;54898;40.918;14.476;2022-07-12T07:51:03;18.40;;;7.70;;
59520;SDS011;54898;40.918;14.476;2022-07-12T07:53:30;17.75;;;7.32;;
59520;SDS011;54898;40.918;14.476;2022-07-12T07:55:58;17.30;;;7.20;;
59520;SDS011;54898;40.918;14.476;2022-07-12T07:58:25;21.45;;;5.95;;
59520;SDS011;54898;40.918;14.476;2022-07-12T08:00:52;15.07;;;5.35;;
59520;SDS011;54898;40.918;14.476;2022-07-12T08:03:19;16.13;;;5.60;;
59520;SDS011;54898;40.918;14.476;2022-07-12T08:05:46;10.65;;;5.93;;
59520;SDS011;54898;40.918;14.476;2022-07-12T08:08:14;19.63;;;5.68;;
59520;SDS011;54898;40.918;14.476;2022-07-12T08:10:40;15.55;;;5.30;;
59520;SDS011;54898;40.918;14.476;2022-07-12T08:13:08;23.25;;;5.55;;
59520;SDS011;54898;40.918;14.476;2022-07-12T08:18:02;14.13;;;5.57;;
59520;SDS011;54898;40.918;14.476;2022-07-12T08:20:29;14.07;;;5.40;;
59520;SDS011;54898;40.918;14.476;2022-07-12T08:22:56;19.55;;;5.60;;
59520;SDS011;54898;40.918;14.476;2022-07-12T08:25:22;16.65;;;5.25;;
59520;SDS011;54898;40.918;14.476;2022-07-12T08:27:50;20.23;;;5.53;;
59520;SDS011;54898;40.918;14.476;2022-07-12T08:30:18;18.77;;;6.22;;
59520;SDS011;54898;40.918;14.476;2022-07-12T08:32:45;14.85;;;5.30;;
59520;SDS011;54898;40.918;14.476;2022-07-12T08:35:12;12.87;;;5.10;;
59520;SDS011;54898;40.918;14.476;2022-07-12T08:37:42;20.60;;;5.47;;
59520;SDS011;54898;40.918;14.476;2022-07-12T08:40:09;12.43;;;5.40;;
59520;SDS011;54898;40.918;14.476;2022-07-12T08:42:37;9.47;;;4.03;;
59520;SDS011;54898;40.918;14.476;2022-07-12T08:45:07;11.13;;;4.82;;
59520;SDS011;54898;40.918;14.476;2022-07-12T08:47:36;17.67;;;5.50;;
59520;SDS011;54898;40.918;14.476;2022-07-12T08:50:09;17.42;;;5.40;;
59520;SDS011;54898;40.918;14.476;2022-07-12T08:52:38;11.30;;;5.85;;
59520;SDS011;54898;40.918;14.476;2022-07-12T08:55:15;15.18;;;5.18;;
59520;SDS011;54898;40.918;14.476;2022-07-12T08:57:44;11.65;;;5.53;;
59520;SDS011;54898;40.918;14.476;2022-07-12T09:00:11;18.77;;;4.47;;
59520;SDS011;54898;40.918;14.476;2022-07-12T09:02:47;17.90;;;5.35;;
59520;SDS011;54898;40.918;14.476;2022-07-12T09:05:15;8.38;;;4.20;;
59520;SDS011;54898;40.918;14.476;2022-07-12T09:07:43;8.52;;;3.65;;
59520;SDS011;54898;40.918;14.476;2022-07-12T09:10:10;9.27;;;3.90;;
59520;SDS011;54898;40.918;14.476;2022-07-12T09:12:38;7.10;;;3.30;;
59520;SDS011;54898;40.918;14.476;2022-07-12T09:15:16;10.02;;;3.40;;
59520;SDS011;54898;40.918;14.476;2022-07-12T09:17:54;8.10;;;3.33;;
59520;SDS011;54898;40.918;14.476;2022-07-12T09:20:23;12.35;;;3.90;;
59520;SDS011;54898;40.918;14.476;2022-07-12T09:22:54;9.20;;;3.47;;
59520;SDS011;54898;40.918;14.476;2022-07-12T09:25:22;10.95;;;3.85;;
59520;SDS011;54898;40.918;14.476;2022-07-12T09:27:53;8.93;;;4.20;;
59520;SDS011;54898;40.918;14.476;2022-07-12T09:30:21;12.23;;;4.25;;
59520;SDS011;54898;40.918;14.476;2022-07-12T09:32:51;10.30;;;4.15;;
59520;SDS011;54898;40.918;14.476;2022-07-12T09:38:22;12.50;;;4.50;;
59520;SDS011;54898;40.918;14.476;2022-07-12T09:40:50;11.30;;;4.43;;
59520;SDS011;54898;40.918;14.476;2022-07-12T09:43:16;13.85;;;4.32;;
59520;SDS011;54898;40.918;14.476;2022-07-12T09:45:45;12.00;;;3.58;;
59520;SDS011;54898;40.918;14.476;2022-07-12T09:48:15;16.48;;;3.92;;
59520;SDS011;54898;40.918;14.476;2022-07-12T09:50:43;10.82;;;3.55;;
59520;SDS011;54898;40.918;14.476;2022-07-12T09:53:14;10.13;;;3.40;;
59520;SDS011;54898;40.918;14.476;2022-07-12T09:55:48;9.30;;;3.42;;
59520;SDS011;54898;40.918;14.476;2022-07-12T09:58:16;10.00;;;3.33;;
59520;SDS011;54898;40.918;14.476;2022-07-12T10:00:48;11.32;;;3.40;;
59520;SDS011;54898;40.918;14.476;2022-07-12T10:03:21;12.90;;;3.65;;
59520;SDS011;54898;40.918;14.476;2022-07-12T10:05:49;6.88;;;3.10;;
59520;SDS011;54898;40.918;14.476;2022-07-12T10:08:19;10.93;;;2.72;;
59520;SDS011;54898;40.918;14.476;2022-07-12T10:10:46;8.40;;;2.50;;
59520;SDS011;54898;40.918;14.476;2022-07-12T10:13:14;13.18;;;2.40;;
59520;SDS011;54898;40.918;14.476;2022-07-12T10:15:42;20.88;;;3.00;;
59520;SDS011;54898;40.918;14.476;2022-07-12T10:18:14;15.48;;;2.90;;
59520;SDS011;54898;40.918;14.476;2022-07-12T10:20:44;16.50;;;2.97;;
59520;SDS011;54898;40.918;14.476;2022-07-12T10:23:27;15.02;;;3.03;;
59520;SDS011;54898;40.918;14.476;2022-07-12T10:26:02;8.40;;;2.97;;
59520;SDS011;54898;40.918;14.476;2022-07-12T10:28:56;12.27;;;2.80;;
59520;SDS011;54898;40.918;14.476;2022-07-12T10:31:27;6.95;;;2.70;;
59520;SDS011;54898;40.918;14.476;2022-07-12T10:34:07;10.23;;;3.40;;
59520;SDS011;54898;40.918;14.476;2022-07-12T10:39:36;4.90;;;2.17;;
59520;SDS011;54898;40.918;14.476;2022-07-12T10:42:12;8.20;;;2.75;;
59520;SDS011;54898;40.918;14.476;2022-07-12T10:44:43;7.43;;;2.75;;
59520;SDS011;54898;40.918;14.476;2022-07-12T10:47:12;2.65;;;2.45;;
59520;SDS011;54898;40.918;14.476;2022-07-12T10:49:46;8.25;;;3.17;;
59520;SDS011;54898;40.918;14.476;2022-07-12T10:52:22;10.30;;;2.65;;
59520;SDS011;54898;40.918;14.476;2022-07-12T10:57:45;13.23;;;3.50;;
59520;SDS011;54898;40.918;14.476;2022-07-12T11:00:17;11.20;;;3.20;;
59520;SDS011;54898;40.918;14.476;2022-07-12T11:02:44;8.95;;;4.22;;
59520;SDS011;54898;40.918;14.476;2022-07-12T11:05:11;7.82;;;3.35;;
59520;SDS011;54898;40.918;14.476;2022-07-12T11:07:39;10.82;;;3.75;;
59520;SDS011;54898;40.918;14.476;2022-07-12T11:10:06;7.00;;;3.65;;
59520;SDS011;54898;40.918;14.476;2022-07-12T11:12:37;8.90;;;3.53;;
59520;SDS011;54898;40.918;14.476;2022-07-12T11:15:04;8.15;;;3.83;;
59520;SDS011;54898;40.918;14.476;2022-07-12T11:17:32;7.82;;;3.47;;
59520;SDS011;54898;40.918;14.476;2022-07-12T11:20:06;7.30;;;3.90;;
59520;SDS011;54898;40.918;14.476;2022-07-12T11:22:35;10.07;;;3.80;;
59520;SDS011;54898;40.918;14.476;2022-07-12T11:25:05;12.13;;;4.47;;
59520;SDS011;54898;40.918;14.476;2022-07-12T11:27:33;9.25;;;4.72;;
59520;SDS011;54898;40.918;14.476;2022-07-12T11:30:00;10.02;;;3.53;;
59520;SDS011;54898;40.918;14.476;2022-07-12T11:35:03;13.00;;;3.70;;
59520;SDS011;54898;40.918;14.476;2022-07-12T11:37:30;10.93;;;3.63;;
59520;SDS011;54898;40.918;14.476;2022-07-12T11:39:57;6.97;;;3.40;;
59520;SDS011;54898;40.918;14.476;2022-07-12T11:42:26;10.68;;;3.55;;
59520;SDS011;54898;40.918;14.476;2022-07-12T11:44:52;6.70;;;3.33;;
59520;SDS011;54898;40.918;14.476;2022-07-12T11:47:20;8.50;;;3.90;;
59520;SDS011;54898;40.918;14.476;2022-07-12T11:49:48;6.90;;;3.47;;
59520;SDS011;54898;40.918;14.476;2022-07-12T11:52:16;8.77;;;3.85;;
59520;SDS011;54898;40.918;14.476;2022-07-12T11:54:44;6.30;;;3.72;;
59520;SDS011;54898;40.918;14.476;2022-07-12T11:57:11;11.65;;;4.43;;
59520;SDS011;54898;40.918;14.476;2022-07-12T11:59:40;13.25;;;4.20;;
59520;SDS011;54898;40.918;14.476;2022-07-12T12:04:43;8.23;;;3.75;;
59520;SDS011;54898;40.918;14.476;2022-07-12T12:07:11;8.35;;;3.88;;
59520;SDS011;54898;40.918;14.476;2022-07-12T12:12:38;5.90;;;3.20;;
59520;SDS011;54898;40.918;14.476;2022-07-12T12:15:10;9.27;;;3.72;;
59520;SDS011;54898;40.918;14.476;2022-07-12T12:17:43;9.00;;;3.50;;
59520;SDS011;54898;40.918;14.476;2022-07-12T12:20:12;6.80;;;3.20;;
59520;SDS011;54898;40.918;14.476;2022-07-12T12:22:42;6.45;;;3.13;;
59520;SDS011;54898;40.918;14.476;2022-07-12T12:25:09;9.88;;;3.20;;
59520;SDS011;54898;40.918;14.476;2022-07-12T12:27:45;7.50;;;3.30;;
59520;SDS011;54898;40.918;14.476;2022-07-12T12:30:14;4.33;;;2.70;;
59520;SDS011;54898;40.918;14.476;2022-07-12T12:32:44;6.22;;;2.92;;
59520;SDS011;54898;40.918;14.476;2022-07-12T12:35:16;11.23;;;3.15;;
59520;SDS011;54898;40.918;14.476;2022-07-12T12:37:50;6.07;;;2.90;;
59520;SDS011;54898;40.918;14.476;2022-07-12T12:40:18;6.07;;;3.25;;
59520;SDS011;54898;40.918;14.476;2022-07-12T12:42:45;4.95;;;2.50;;
59520;SDS011;54898;40.918;14.476;2022-07-12T12:45:18;10.70;;;2.90;;
59520;SDS011;54898;40.918;14.476;2022-07-12T12:47:55;6.05;;;2.80;;
59520;SDS011;54898;40.918;14.476;2022-07-12T12:50:39;5.77;;;2.53;;
59520;SDS011;54898;40.918;14.476;2022-07-12T12:53:10;4.43;;;2.50;;
59520;SDS011;54898;40.918;14.476;2022-07-12T12:55:38;11.30;;;2.60;;
59520;SDS011;54898;40.918;14.476;2022-07-12T12:58:05;6.90;;;2.40;;
59520;SDS011;54898;40.918;14.476;2022-07-12T13:19:54;15.30;;;2.75;;
59520;SDS011;54898;40.918;14.476;2022-07-12T13:22:21;8.60;;;2.42;;
59520;SDS011;54898;40.918;14.476;2022-07-12T13:24:47;5.20;;;2.33;;
59520;SDS011;54898;40.918;14.476;2022-07-12T13:27:16;3.40;;;2.30;;
59520;SDS011;54898;40.918;14.476;2022-07-12T13:29:42;7.20;;;2.35;;
59520;SDS011;54898;40.918;14.476;2022-07-12T13:32:09;6.57;;;2.30;;
59520;SDS011;54898;40.918;14.476;2022-07-12T13:34:36;5.72;;;2.10;;
59520;SDS011;54898;40.918;14.476;2022-07-12T13:37:05;6.50;;;2.00;;
59520;SDS011;54898;40.918;14.476;2022-07-12T13:39:32;10.32;;;2.10;;
59520;SDS011;54898;40.918;14.476;2022-07-12T13:42:18;8.75;;;2.25;;
59520;SDS011;54898;40.918;14.476;2022-07-12T13:44:45;35.42;;;5.07;;
59520;SDS011;54898;40.918;14.476;2022-07-12T13:47:12;13.13;;;2.55;;
59520;SDS011;54898;40.918;14.476;2022-07-12T13:49:39;11.35;;;2.78;;
59520;SDS011;54898;40.918;14.476;2022-07-12T13:52:10;17.02;;;2.83;;
59520;SDS011;54898;40.918;14.476;2022-07-12T13:54:37;9.27;;;1.98;;
59520;SDS011;54898;40.918;14.476;2022-07-12T13:57:04;14.10;;;2.10;;
59520;SDS011;54898;40.918;14.476;2022-07-12T13:59:31;10.52;;;1.63;;
59520;SDS011;54898;40.918;14.476;2022-07-12T14:01:58;6.80;;;1.80;;
59520;SDS011;54898;40.918;14.476;2022-07-12T14:04:25;4.38;;;1.60;;
59520;SDS011;54898;40.918;14.476;2022-07-12T14:06:52;5.47;;;1.92;;
59520;SDS011;54898;40.918;14.476;2022-07-12T14:09:21;6.32;;;1.70;;
59520;SDS011;54898;40.918;14.476;2022-07-12T14:11:48;6.30;;;2.27;;
59520;SDS011;54898;40.918;14.476;2022-07-12T14:14:15;10.00;;;1.80;;
59520;SDS011;54898;40.918;14.476;2022-07-12T14:16:42;5.82;;;2.17;;
59520;SDS011;54898;40.918;14.476;2022-07-12T14:19:09;13.80;;;2.38;;
59520;SDS011;54898;40.918;14.476;2022-07-12T14:21:36;13.38;;;2.30;;
59520;SDS011;54898;40.918;14.476;2022-07-12T14:24:03;10.85;;;1.90;;
59520;SDS011;54898;40.918;14.476;2022-07-12T14:26:32;6.80;;;2.65;;
59520;SDS011;54898;40.918;14.476;2022-07-12T14:28:58;9.20;;;2.20;;
59520;SDS011;54898;40.918;14.476;2022-07-12T14:31:25;16.55;;;2.53;;
59520;SDS011;54898;40.918;14.476;2022-07-12T14:33:51;6.30;;;1.67;;
59520;SDS011;54898;40.918;14.476;2022-07-12T14:36:18;5.45;;;1.70;;
59520;SDS011;54898;40.918;14.476;2022-07-12T14:38:45;6.90;;;2.13;;
59520;SDS011;54898;40.918;14.476;2022-07-12T14:41:12;6.97;;;1.98;;
59520;SDS011;54898;40.918;14.476;2022-07-12T14:43:42;10.27;;;2.00;;
59520;SDS011;54898;40.918;14.476;2022-07-12T14:46:08;6.87;;;1.70;;
59520;SDS011;54898;40.918;14.476;2022-07-12T14:48:35;2.70;;;1.80;;
59520;SDS011;54898;40.918;14.476;2022-07-12T14:51:02;4.28;;;1.67;;
59520;SDS011;54898;40.918;14.476;2022-07-12T14:53:29;6.60;;;1.48;;
59520;SDS011;54898;40.918;14.476;2022-07-12T14:55:56;4.72;;;2.00;;
59520;SDS011;54898;40.918;14.476;2022-07-12T14:58:22;6.82;;;1.80;;
59520;SDS011;54898;40.918;14.476;2022-07-12T15:00:51;4.63;;;2.03;;
59520;SDS011;54898;40.918;14.476;2022-07-12T15:03:18;10.23;;;2.70;;
59520;SDS011;54898;40.918;14.476;2022-07-12T15:05:45;6.55;;;2.30;;
59520;SDS011;54898;40.918;14.476;2022-07-12T15:08:12;5.45;;;2.30;;
59520;SDS011;54898;40.918;14.476;2022-07-12T15:10:39;14.98;;;2.35;;
59520;SDS011;54898;40.918;14.476;2022-07-12T15:13:06;7.63;;;2.20;;
59520;SDS011;54898;40.918;14.476;2022-07-12T15:15:33;6.45;;;2.58;;